Time;durP1;ratioP1;P1;durP2;ratioP2;P2;SDS_P1;SDS_P2;PMS_P1;PMS_P2;Temp;Humidity;BMP_temperature;BMP_pressure;BME280_temperature;BME280_humidity;BME280_pressure;Samples;Min_cycle;Max_cycle;Signal;HPM_P1;HPM_P2
2022/12/12 00:01:52;;;;;;;17.90;7.20;;;-1.80;99.90;;;;;;4929328;29;20020;-72
2022/12/12 00:04:18;;;;;;;24.67;8.30;;;;;;;;;;4931219;29;20035;-72
2022/12/12 00:06:44;;;;;;;9.02;6.93;;;-1.80;99.90;;;;;;4933112;29;20489;-72
2022/12/12 00:09:10;;;;;;;30.23;9.57;;;;;;;;;;4933337;29;20102;-73
2022/12/12 00:11:36;;;;;;;18.20;8.02;;;-2.10;99.90;;;;;;4920442;29;20030;-72
2022/12/12 00:14:02;;;;;;;18.52;8.73;;;;;;;;;;4932660;29;20035;-73
2022/12/12 00:16:28;;;;;;;11.90;6.22;;;;;;;;;;4963639;28;20405;-72
2022/12/12 00:18:54;;;;;;;23.33;7.07;;;;;;;;;;4932223;29;20039;-72
2022/12/12 00:21:23;;;;;;;23.17;8.15;;;-1.90;99.90;;;;;;4932957;29;20047;-73
2022/12/12 00:23:49;;;;;;;16.52;6.38;;;-1.90;99.90;;;;;;4932606;29;20035;-72
2022/12/12 00:26:21;;;;;;;12.90;5.95;;;-3.40;99.90;;;;;;4933147;29;20024;-72
2022/12/12 00:28:47;;;;;;;23.13;6.53;;;-2.10;99.90;;;;;;4932957;29;20532;-73
2022/12/12 00:31:14;;;;;;;16.42;8.35;;;;;;;;;;4933004;29;20529;-72
2022/12/12 00:33:40;;;;;;;12.65;5.80;;;;;;;;;;4932245;29;20119;-73
2022/12/12 00:36:06;;;;;;;42.58;9.57;;;;;;;;;;4932717;29;20666;-72
2022/12/12 00:38:32;;;;;;;27.92;8.55;;;;;;;;;;4932709;29;20138;-73
2022/12/12 00:40:59;;;;;;;13.82;7.35;;;-2.00;99.90;;;;;;4932792;29;20474;-72
2022/12/12 00:43:25;;;;;;;18.42;7.15;;;-2.00;99.90;;;;;;4932702;29;20115;-73
2022/12/12 00:45:52;;;;;;;15.40;7.28;;;-2.10;99.90;;;;;;4932589;29;20040;-72
2022/12/12 00:48:18;;;;;;;22.20;9.75;;;;;;;;;;4932390;29;20055;-72
2022/12/12 00:50:44;;;;;;;16.00;7.13;;;;;;;;;;4932089;29;20049;-72
2022/12/12 00:53:12;;;;;;;24.25;9.82;;;-2.00;99.90;;;;;;4932165;29;20123;-72
2022/12/12 00:55:37;;;;;;;10.93;7.07;;;;;;;;;;4932631;29;20036;-73
2022/12/12 00:58:03;;;;;;;18.58;7.97;;;;;;;;;;4932183;29;20043;-72
2022/12/12 01:00:29;;;;;;;11.68;7.75;;;;;;;;;;4932426;29;20055;-72
2022/12/12 01:02:56;;;;;;;23.10;6.57;;;-2.00;99.90;;;;;;4931926;29;20604;-72
2022/12/12 01:05:22;;;;;;;16.20;8.33;;;;;;;;;;4932544;29;20079;-74
2022/12/12 01:07:48;;;;;;;17.10;7.03;;;;;;;;;;4932201;29;20035;-72
2022/12/12 01:10:14;;;;;;;12.30;6.13;;;-2.10;99.90;;;;;;4932338;29;20760;-73
2022/12/12 01:12:39;;;;;;;29.13;8.00;;;-2.20;99.90;;;;;;4932313;29;20039;-72
2022/12/12 01:15:07;;;;;;;22.48;7.97;;;-2.20;99.90;;;;;;4931524;29;20031;-72
2022/12/12 01:17:36;;;;;;;;;;;-2.10;99.90;;;;;;4932666;29;20465;-72
2022/12/12 01:20:04;;;;;;;31.20;8.93;;;-2.20;99.90;;;;;;4932316;29;19910;-75
2022/12/12 01:22:30;;;;;;;17.63;6.43;;;;;;;;;;4932070;29;20012;-72
2022/12/12 01:24:57;;;;;;;17.83;6.05;;;-2.20;99.90;;;;;;4932055;29;20114;-72
2022/12/12 01:27:23;;;;;;;13.98;7.40;;;;;;;;;;4931747;29;20047;-75
2022/12/12 01:29:49;;;;;;;16.45;7.28;;;;;;;;;;4959426;28;20118;-72
2022/12/12 01:32:14;;;;;;;23.95;7.78;;;-2.10;99.90;;;;;;4928259;29;20031;-72
2022/12/12 01:34:40;;;;;;;17.23;8.70;;;;;;;;;;4932042;29;20024;-72
2022/12/12 01:37:06;;;;;;;13.35;6.95;;;;;;;;;;4931616;29;20531;-72
2022/12/12 01:39:32;;;;;;;28.52;6.00;;;;;;;;;;4931871;29;20031;-72
2022/12/12 01:41:58;;;;;;;24.45;9.15;;;;;;;;;;4932060;29;20118;-72
2022/12/12 01:44:56;;;;;;;11.07;7.22;;;-2.00;99.90;;;;;;4931083;29;20067;-72
2022/12/12 01:47:22;;;;;;;11.98;6.38;;;-2.10;99.90;;;;;;4931520;29;20024;-72
2022/12/12 01:50:09;;;;;;;10.48;4.97;;;-2.10;99.90;;;;;;4931285;29;20067;-72
2022/12/12 01:52:44;;;;;;;13.47;7.03;;;-2.10;99.90;;;;;;4931591;29;20110;-72
2022/12/12 01:55:14;;;;;;;31.20;6.13;;;-2.20;99.90;;;;;;4931033;29;20792;-73
2022/12/12 01:57:44;;;;;;;21.45;6.13;;;-2.30;99.90;;;;;;4931187;29;20039;-72
2022/12/12 02:00:11;;;;;;;11.73;6.30;;;;;;;;;;4930887;28;20039;-72
2022/12/12 02:02:38;;;;;;;26.38;6.82;;;-2.40;99.90;;;;;;4931152;29;20082;-72
2022/12/12 02:05:11;;;;;;;17.65;8.32;;;-2.40;99.90;;;;;;4931002;29;20584;-72
2022/12/12 02:07:37;;;;;;;15.70;8.13;;;;;;;;;;4930943;29;20032;-76
2022/12/12 02:10:04;;;;;;;15.10;8.20;;;;;;;;;;4931391;29;20024;-72
2022/12/12 02:12:30;;;;;;;26.92;8.80;;;;;;;;;;4930764;29;20047;-72
2022/12/12 02:14:55;;;;;;;13.80;6.60;;;-1.90;99.90;;;;;;4930299;29;20389;-72
2022/12/12 02:17:21;;;;;;;16.08;9.30;;;;;;;;;;4930701;29;20139;-74
2022/12/12 02:20:18;;;;;;;19.65;6.32;;;-2.30;99.90;;;;;;4930618;29;20062;-73
2022/12/12 02:23:22;;;;;;;7.18;4.60;;;-2.20;99.90;;;;;;4930722;29;20050;-72
2022/12/12 02:26:14;;;;;;;18.15;6.65;;;-2.30;99.90;;;;;;4908287;29;20036;-73
2022/12/12 02:29:13;;;;;;;12.23;7.03;;;-2.40;99.90;;;;;;4908581;29;20033;-72
2022/12/12 02:31:39;;;;;;;31.42;7.60;;;;;;;;;;4909013;29;20532;-72
2022/12/12 02:34:24;;;;;;;16.98;7.65;;;-2.40;99.90;;;;;;4909076;29;20036;-75
2022/12/12 02:37:08;;;;;;;20.85;7.93;;;-2.50;99.90;;;;;;4909000;29;20036;-72
2022/12/12 02:40:07;;;;;;;13.25;6.50;;;-1.80;99.90;;;;;;4909026;29;20119;-75
2022/12/12 02:42:56;;;;;;;12.95;9.68;;;-2.40;99.90;;;;;;4908885;29;20639;-72
2022/12/12 02:45:44;;;;;;;28.95;7.93;;;-2.30;99.90;;;;;;4909469;29;20110;-72
2022/12/12 02:48:19;;;;;;;12.88;6.72;;;-2.30;99.90;;;;;;4910071;29;20031;-72
2022/12/12 02:50:47;;;;;;;17.95;8.50;;;-2.30;99.90;;;;;;4909391;29;20032;-72
2022/12/12 02:53:17;;;;;;;12.18;6.22;;;-2.30;99.90;;;;;;4922848;29;20031;-73
2022/12/12 02:55:43;;;;;;;17.80;7.97;;;;;;;;;;4917084;29;20055;-72
2022/12/12 02:58:10;;;;;;;14.05;9.00;;;;;;;;;;4924386;29;20417;-73
2022/12/12 03:00:53;;;;;;;24.55;9.52;;;-2.20;99.90;;;;;;4917330;29;20063;-73
2022/12/12 03:10:15;;;;;;;22.63;11.32;;;-2.20;99.90;;;;;;4923267;29;20035;-72
2022/12/12 03:12:57;;;;;;;14.40;7.55;;;-2.30;99.90;;;;;;4886557;29;20040;-72
2022/12/12 03:15:28;;;;;;;23.13;7.85;;;-2.40;99.90;;;;;;4880966;29;20041;-72
2022/12/12 03:18:09;;;;;;;17.67;6.25;;;-2.30;99.90;;;;;;4874436;29;20045;-72
2022/12/12 03:20:48;;;;;;;19.15;6.38;;;-2.30;99.90;;;;;;4875699;29;20029;-72
2022/12/12 03:23:19;;;;;;;28.17;10.95;;;-2.30;99.90;;;;;;4860847;29;20029;-73
2022/12/12 03:25:55;;;;;;;17.40;7.28;;;-2.30;99.90;;;;;;4870515;29;20029;-72
2022/12/12 03:28:34;;;;;;;14.82;6.65;;;-2.20;99.90;;;;;;4881983;29;20048;-72
2022/12/12 03:31:06;;;;;;;15.98;7.57;;;-2.20;99.90;;;;;;4870388;29;20032;-73
2022/12/12 03:33:45;;;;;;;23.73;7.68;;;-2.20;99.90;;;;;;4870552;29;20041;-72
2022/12/12 03:36:11;;;;;;;28.88;9.77;;;;;;;;;;4870355;29;20045;-72
2022/12/12 03:38:43;;;;;;;14.68;10.82;;;-2.10;99.90;;;;;;4870132;29;20170;-72
2022/12/12 03:41:16;;;;;;;13.48;7.70;;;-2.10;99.90;;;;;;4869764;29;20040;-72
2022/12/12 03:43:51;;;;;;;17.05;7.45;;;-2.20;99.90;;;;;;4875143;29;20117;-72
2022/12/12 03:46:17;;;;;;;18.17;8.40;;;;;;;;;;4875125;29;20581;-72
2022/12/12 03:49:13;;;;;;;13.50;7.40;;;-2.10;99.90;;;;;;4907442;29;20043;-72
2022/12/12 03:51:47;;;;;;;10.00;6.72;;;-2.20;99.90;;;;;;4928317;29;20099;-72
2022/12/12 03:54:32;;;;;;;14.05;7.28;;;-2.20;99.90;;;;;;4928995;29;20540;-72
2022/12/12 03:57:13;;;;;;;21.90;9.93;;;-2.20;99.90;;;;;;4929345;29;20023;-75
2022/12/12 03:59:42;;;;;;;23.90;8.95;;;-2.20;99.90;;;;;;4929596;29;20040;-74
2022/12/12 04:02:20;;;;;;;12.32;5.72;;;-2.10;99.90;;;;;;4929511;29;20343;-74
2022/12/12 04:04:59;;;;;;;33.25;6.55;;;-2.20;99.90;;;;;;4929349;29;20031;-75
2022/12/12 04:07:36;;;;;;;19.50;7.63;;;-2.10;99.90;;;;;;4929228;29;20521;-74
2022/12/12 04:13:19;;;;;;;30.38;10.40;;;-2.30;99.90;;;;;;4929356;29;20122;-74
2022/12/12 04:15:54;;;;;;;14.73;7.05;;;-2.20;99.90;;;;;;4928975;29;20039;-74
2022/12/12 04:18:31;;;;;;;14.85;6.22;;;-2.20;99.90;;;;;;4928847;29;20039;-73
2022/12/12 04:24:10;;;;;;;31.58;7.85;;;-2.20;99.90;;;;;;4928940;29;20392;-74
2022/12/12 04:26:44;;;;;;;33.10;11.10;;;-2.20;99.90;;;;;;4929447;29;20536;-74
2022/12/12 04:29:24;;;;;;;19.20;9.20;;;-2.20;99.90;;;;;;4929217;29;20071;-74
2022/12/12 04:31:59;;;;;;;14.38;8.38;;;-2.20;99.90;;;;;;4929193;29;20759;-74
2022/12/12 04:34:46;;;;;;;16.85;8.10;;;-2.20;99.90;;;;;;4928894;29;20040;-74
2022/12/12 04:37:15;;;;;;;24.50;8.85;;;-0.70;99.90;;;;;;4928827;29;20513;-75
2022/12/12 04:39:43;;;;;;;14.63;6.88;;;-2.10;99.90;;;;;;4928811;29;20748;-75
2022/12/12 04:42:10;;;;;;;;;;;-2.10;99.90;;;;;;4929623;29;20020;-74
2022/12/12 04:44:37;;;;;;;;;;;-2.10;99.90;;;;;;4929461;29;19930;-74
2022/12/12 04:47:04;;;;;;;;;;;-2.10;99.90;;;;;;4929555;29;19918;-74
2022/12/12 04:49:32;;;;;;;12.93;5.47;;;0.20;99.90;;;;;;4929714;29;20320;-74
2022/12/12 04:52:10;;;;;;;9.43;8.25;;;-2.20;99.90;;;;;;4932957;29;20114;-74
2022/12/12 04:54:55;;;;;;;15.95;7.30;;;-2.20;99.90;;;;;;4931705;29;20079;-74
2022/12/12 04:57:28;;;;;;;21.75;10.07;;;-2.10;99.90;;;;;;4932266;29;20112;-74
2022/12/12 04:59:54;;;;;;;21.35;6.10;;;;;;;;;;4932302;29;20028;-74
2022/12/12 05:02:20;;;;;;;25.10;7.00;;;;;;;;;;4932511;29;20111;-74
2022/12/12 05:05:01;;;;;;;23.77;9.35;;;-2.20;99.90;;;;;;4932320;29;20062;-74
2022/12/12 05:07:36;;;;;;;18.63;9.80;;;-2.20;99.90;;;;;;4931899;29;20028;-74
2022/12/12 05:10:10;;;;;;;12.77;6.55;;;-2.00;99.90;;;;;;4932112;29;20719;-74
2022/12/12 05:12:57;;;;;;;28.50;9.10;;;-2.30;99.90;;;;;;4932052;29;20030;-74
2022/12/12 05:15:23;;;;;;;;;;;-2.20;99.90;;;;;;4932409;29;20032;-74
2022/12/12 05:18:02;;;;;;;13.20;8.38;;;-2.30;99.90;;;;;;4931979;29;19915;-74
2022/12/12 05:20:27;;;;;;;23.55;8.45;;;-2.10;99.90;;;;;;4932027;29;20028;-74
2022/12/12 05:22:53;;;;;;;19.77;7.35;;;;;;;;;;4931487;29;20035;-74
2022/12/12 05:25:19;;;;;;;25.55;9.88;;;-2.20;99.90;;;;;;4931805;29;20035;-74
2022/12/12 05:27:45;;;;;;;21.70;10.57;;;;;;;;;;4931816;29;20055;-74
2022/12/12 05:30:11;;;;;;;17.40;6.60;;;-2.60;99.90;;;;;;4931586;29;20024;-74
2022/12/12 05:32:37;;;;;;;12.68;7.18;;;-2.30;99.90;;;;;;4932743;29;20109;-74
2022/12/12 05:35:04;;;;;;;23.50;9.48;;;-2.30;99.90;;;;;;4931696;29;20438;-74
2022/12/12 05:37:30;;;;;;;20.40;7.00;;;;;;;;;;4931387;29;20035;-74
2022/12/12 05:39:55;;;;;;;14.52;7.53;;;-2.00;99.90;;;;;;4931459;29;20039;-74
2022/12/12 05:42:21;;;;;;;24.90;9.57;;;;;;;;;;4931723;29;20578;-75
2022/12/12 05:44:47;;;;;;;23.35;7.40;;;;;;;;;;4931195;29;20050;-74
2022/12/12 05:47:13;;;;;;;14.07;6.47;;;;;;;;;;4931696;29;20437;-74
2022/12/12 05:49:39;;;;;;;19.35;8.25;;;;;;;;;;4931565;29;20028;-74
2022/12/12 05:52:05;;;;;;;19.77;8.88;;;;;;;;;;4931500;29;20035;-74
2022/12/12 05:54:31;;;;;;;16.02;6.75;;;-2.30;99.90;;;;;;4931198;29;20100;-75
2022/12/12 05:56:57;;;;;;;18.25;7.40;;;-2.30;99.90;;;;;;4931444;29;20055;-74
2022/12/12 05:59:22;;;;;;;25.83;9.98;;;;;;;;;;4931421;29;20383;-74
2022/12/12 06:01:48;;;;;;;18.88;6.68;;;;;;;;;;4930367;29;20111;-75
2022/12/12 06:04:14;;;;;;;22.17;7.38;;;;;;;;;;4930870;29;20499;-74
2022/12/12 06:06:40;;;;;;;12.23;10.98;;;-2.20;99.90;;;;;;4930753;29;20223;-74
2022/12/12 06:09:06;;;;;;;15.50;5.63;;;-2.20;99.90;;;;;;4926881;29;20110;-74
2022/12/12 06:11:31;;;;;;;10.35;6.05;;;-2.10;99.90;;;;;;4932861;29;20054;-74
2022/12/12 06:13:57;;;;;;;19.77;9.23;;;;;;;;;;4924666;29;20028;-74
2022/12/12 06:16:23;;;;;;;11.88;7.32;;;;;;;;;;4930436;29;20099;-74
2022/12/12 06:18:53;;;;;;;14.80;8.18;;;-2.30;99.90;;;;;;4930384;29;20042;-75
2022/12/12 06:21:19;;;;;;;23.60;8.57;;;;;;;;;;4930494;29;20019;-74
2022/12/12 06:23:45;;;;;;;12.45;6.43;;;;;;;;;;4930238;29;20024;-74
2022/12/12 06:26:13;;;;;;;33.08;7.15;;;-2.60;99.90;;;;;;4930734;29;20034;-75
2022/12/12 06:28:39;;;;;;;28.83;7.07;;;-2.70;99.90;;;;;;4933062;29;20032;-74
2022/12/12 06:31:05;;;;;;;22.38;6.10;;;-3.20;99.90;;;;;;4926662;29;20079;-74
2022/12/12 06:33:34;;;;;;;15.82;6.15;;;;;;;;;;4931568;29;20618;-75
2022/12/12 06:36:02;;;;;;;19.17;7.45;;;-2.80;99.90;;;;;;4923234;29;20217;-74
2022/12/12 06:38:28;;;;;;;15.20;10.15;;;;;;;;;;4925889;29;20492;-75
2022/12/12 06:40:54;;;;;;;16.50;6.40;;;;;;;;;;4927518;29;20019;-74
2022/12/12 06:43:21;;;;;;;15.95;7.30;;;-3.00;99.90;;;;;;4957936;28;20035;-74
2022/12/12 06:45:47;;;;;;;15.27;9.40;;;;;;;;;;4928158;29;20028;-74
2022/12/12 06:48:12;;;;;;;22.95;7.22;;;-2.90;99.90;;;;;;4930480;29;20133;-74
2022/12/12 06:50:40;;;;;;;23.17;6.97;;;-3.00;99.90;;;;;;4929564;29;20122;-77
2022/12/12 06:53:06;;;;;;;17.23;9.40;;;;;;;;;;4929587;29;20032;-78
2022/12/12 06:55:31;;;;;;;8.82;5.70;;;-2.90;99.90;;;;;;4924297;29;20150;-74
2022/12/12 06:57:57;;;;;;;11.02;8.48;;;;;;;;;;4929194;29;20048;-77
2022/12/12 07:00:23;;;;;;;27.50;10.18;;;;;;;;;;4928603;29;20023;-77
2022/12/12 07:02:49;;;;;;;27.17;10.75;;;;;;;;;;4928981;29;20031;-73
2022/12/12 07:05:15;;;;;;;27.80;9.60;;;;;;;;;;4929013;29;20027;-74
2022/12/12 07:07:41;;;;;;;15.13;5.60;;;;;;;;;;4928717;29;20024;-74
2022/12/12 07:10:07;;;;;;;22.05;6.63;;;;;;;;;;4928746;29;20023;-73
2022/12/12 07:12:33;;;;;;;22.67;6.40;;;;;;;;;;4928770;29;20039;-74
2022/12/12 07:14:59;;;;;;;16.52;9.05;;;-2.50;99.90;;;;;;4928239;29;20031;-74
2022/12/12 07:17:25;;;;;;;14.52;7.38;;;;;;;;;;4927332;29;20110;-74
2022/12/12 07:19:51;;;;;;;14.52;7.80;;;;;;;;;;4928762;29;20110;-71
2022/12/12 07:22:16;;;;;;;21.00;6.15;;;-2.50;99.90;;;;;;4928852;29;20214;-71
2022/12/12 07:24:42;;;;;;;15.73;6.18;;;;;;;;;;4929112;29;20035;-71
2022/12/12 07:27:08;;;;;;;12.50;8.52;;;;;;;;;;4928907;29;20020;-71
2022/12/12 07:29:34;;;;;;;42.80;9.50;;;;;;;;;;4928739;29;20027;-71
2022/12/12 07:32:00;;;;;;;11.55;7.18;;;;;;;;;;4927543;29;20131;-71
2022/12/12 07:34:28;;;;;;;29.77;9.88;;;-2.70;99.90;;;;;;4928580;29;20133;-71
2022/12/12 07:36:54;;;;;;;17.70;7.55;;;;;;;;;;4928421;29;20042;-79
2022/12/12 07:39:20;;;;;;;28.52;7.43;;;-2.70;99.90;;;;;;4918270;29;20032;-78
2022/12/12 07:41:45;;;;;;;11.77;5.82;;;-2.70;99.90;;;;;;4926614;29;20028;-76
2022/12/12 07:44:11;;;;;;;40.72;11.88;;;;;;;;;;4924045;29;20032;-76
2022/12/12 07:46:37;;;;;;;26.98;9.95;;;;;;;;;;4926679;29;20115;-73
2022/12/12 07:49:03;;;;;;;12.20;7.82;;;;;;;;;;4921717;29;20045;-72
2022/12/12 07:51:30;;;;;;;15.40;9.15;;;-2.60;99.90;;;;;;4926415;29;20015;-78
2022/12/12 07:53:56;;;;;;;10.45;5.60;;;;;;;;;;4927696;29;20090;-72
2022/12/12 07:56:22;;;;;;;13.82;6.53;;;;;;;;;;4925285;29;20031;-71
2022/12/12 07:58:48;;;;;;;23.77;7.72;;;;;;;;;;4923119;29;20092;-78
2022/12/12 08:01:19;;;;;;;21.20;10.10;;;-2.40;99.90;;;;;;4925960;29;20516;-75
2022/12/12 08:03:46;;;;;;;15.68;5.25;;;-2.30;99.90;;;;;;4926879;29;20679;-74
2022/12/12 08:06:12;;;;;;;25.52;9.70;;;-2.20;99.90;;;;;;4926860;29;20024;-73
2022/12/12 08:08:38;;;;;;;26.63;8.50;;;;;;;;;;4917628;29;20056;-74
2022/12/12 08:11:09;;;;;;;11.05;7.63;;;-2.30;99.90;;;;;;4923555;29;20031;-74
2022/12/12 08:13:36;;;;;;;15.52;6.88;;;-2.50;99.90;;;;;;4927302;28;20028;-74
2022/12/12 08:16:03;;;;;;;;;;;-2.20;99.90;;;;;;4926329;29;20036;-74
2022/12/12 08:18:28;;;;;;;16.60;8.68;;;-2.10;99.90;;;;;;4925100;29;19926;-73
2022/12/12 08:20:54;;;;;;;17.30;6.85;;;;;;;;;;4923063;29;20027;-75
2022/12/12 08:23:20;;;;;;;15.23;7.38;;;-1.60;99.90;;;;;;4925231;29;20024;-74
2022/12/12 08:25:46;;;;;;;21.50;10.68;;;;;;;;;;4929769;29;20110;-74
2022/12/12 08:28:12;;;;;;;17.45;6.70;;;;;;;;;;4931406;29;20038;-73
2022/12/12 08:30:38;;;;;;;24.92;7.18;;;;;;;;;;4919028;29;20031;-73
2022/12/12 08:33:03;;;;;;;21.50;11.55;;;-1.80;99.90;;;;;;4930316;29;20162;-74
2022/12/12 08:35:31;;;;;;;10.60;6.10;;;-1.70;99.90;;;;;;4930071;29;20413;-72
2022/12/12 08:37:57;;;;;;;25.70;10.82;;;;;;;;;;4929038;29;20019;-76
2022/12/12 08:40:23;;;;;;;25.80;8.95;;;;;;;;;;4922186;29;20054;-75
2022/12/12 08:42:49;;;;;;;19.00;10.07;;;;;;;;;;4930774;29;20044;-75
2022/12/12 08:45:15;;;;;;;14.40;6.90;;;;;;;;;;4927066;29;20032;-73
2022/12/12 08:47:41;;;;;;;24.52;9.35;;;;;;;;;;4930854;29;20130;-73
2022/12/12 08:50:07;;;;;;;13.20;6.10;;;-1.40;99.90;;;;;;4916158;29;20552;-74
2022/12/12 08:52:33;;;;;;;16.98;8.38;;;;;;;;;;4929675;29;20110;-74
2022/12/12 08:54:59;;;;;;;20.90;8.30;;;;;;;;;;4930667;29;20139;-75
2022/12/12 08:57:25;;;;;;;26.17;8.57;;;-0.70;99.90;;;;;;4929283;29;20398;-76
2022/12/12 08:59:51;;;;;;;24.95;8.18;;;;;;;;;;4920307;29;20035;-73
2022/12/12 09:02:17;;;;;;;23.20;11.48;;;;;;;;;;4929390;29;20024;-72
2022/12/12 09:04:43;;;;;;;23.50;8.15;;;;;;;;;;4927918;29;20111;-71
2022/12/12 09:07:09;;;;;;;30.83;8.75;;;;;;;;;;4929276;29;20027;-72
2022/12/12 09:09:35;;;;;;;12.40;6.15;;;;;;;;;;4920162;29;20046;-72
2022/12/12 09:12:01;;;;;;;18.45;8.23;;;;;;;;;;4928121;29;20031;-72
2022/12/12 09:14:27;;;;;;;26.42;8.45;;;-0.20;99.90;;;;;;4928594;29;20039;-72
2022/12/12 09:16:53;;;;;;;19.75;8.85;;;;;;;;;;4930262;29;20097;-72
2022/12/12 09:19:19;;;;;;;23.88;9.43;;;;;;;;;;4919498;29;20117;-73
2022/12/12 09:21:45;;;;;;;18.77;7.15;;;;;;;;;;4928705;29;20613;-73
2022/12/12 09:24:11;;;;;;;19.65;7.32;;;;;;;;;;4929313;29;20089;-72
2022/12/12 09:26:37;;;;;;;23.83;8.45;;;;;;;;;;4929493;29;20535;-72
2022/12/12 09:29:04;;;;;;;32.70;10.05;;;;;;;;;;4919648;29;20031;-73
2022/12/12 09:31:30;;;;;;;26.88;7.93;;;0.30;99.90;;;;;;4927748;29;20185;-72
2022/12/12 09:33:56;;;;;;;24.92;9.57;;;;;;;;;;4930372;29;20095;-72
2022/12/12 09:36:22;;;;;;;15.70;7.70;;;;;;;;;;4928515;29;20457;-72
2022/12/12 09:38:48;;;;;;;22.50;8.95;;;;;;;;;;4922466;29;20444;-77
2022/12/12 09:41:19;;;;;;;20.98;8.07;;;0.10;99.90;;;;;;4924458;29;20500;-75
2022/12/12 09:43:59;;;;;;;23.25;6.13;;;0.20;99.90;;;;;;4929205;29;20074;-76
2022/12/12 09:46:49;;;;;;;36.72;8.75;;;0.10;99.80;;;;;;4927013;29;20998;-75
2022/12/12 09:49:27;;;;;;;21.63;9.35;;;0.30;99.80;;;;;;4919514;29;20044;-77
2022/12/12 09:51:55;;;;;;;40.83;9.25;;;0.50;99.50;;;;;;4928850;29;20541;-78
2022/12/12 09:54:24;;;;;;;21.88;7.72;;;0.60;99.10;;;;;;4929801;29;20106;-74
2022/12/12 09:57:04;;;;;;;22.98;7.60;;;0.70;98.60;;;;;;4927935;29;20028;-72
2022/12/12 09:59:54;;;;;;;19.35;8.65;;;1.10;98.30;;;;;;4922744;29;20392;-73
2022/12/12 10:02:38;;;;;;;22.05;7.47;;;1.30;98.10;;;;;;4923261;29;20020;-75
2022/12/12 10:05:35;;;;;;;22.25;8.45;;;1.60;97.40;;;;;;4929344;29;20035;-76
2022/12/12 10:08:20;;;;;;;24.75;7.10;;;1.80;96.70;;;;;;4923969;29;20075;-75
2022/12/12 10:10:51;;;;;;;19.15;7.63;;;2.00;99.90;;;;;;4921975;29;20023;-75
2022/12/12 10:13:25;;;;;;;17.25;6.95;;;2.10;96.10;;;;;;4926766;29;20071;-76
2022/12/12 10:16:03;;;;;;;17.58;7.13;;;2.40;94.30;;;;;;4929499;29;20144;-77
2022/12/12 10:18:45;;;;;;;25.40;8.85;;;2.50;93.20;;;;;;4923747;29;20073;-77
2022/12/12 10:21:32;;;;;;;13.05;6.15;;;3.00;99.90;;;;;;4927530;29;20482;-76
2022/12/12 10:24:07;;;;;;;25.25;8.18;;;3.30;92.50;;;;;;4928713;29;20032;-75
2022/12/12 10:26:33;;;;;;;26.60;9.07;;;;;;;;;;4929258;29;20644;-77
2022/12/12 10:29:07;;;;;;;31.23;10.32;;;4.20;90.70;;;;;;4919670;29;20027;-76
2022/12/12 10:31:52;;;;;;;23.05;6.82;;;4.60;87.50;;;;;;4928999;29;20575;-75
2022/12/12 10:35:10;;;;;;;18.70;7.50;;;4.80;82.70;;;;;;4917614;29;20032;-76
2022/12/12 10:37:56;;;;;;;17.63;8.85;;;5.50;83.10;;;;;;4888010;29;20033;-76
2022/12/12 10:40:36;;;;;;;15.43;5.93;;;5.10;73.60;;;;;;4880072;29;20048;-76
2022/12/12 10:43:09;;;;;;;23.60;7.65;;;4.60;90.20;;;;;;4887318;29;20037;-74
2022/12/12 10:45:44;;;;;;;24.02;7.97;;;3.90;81.10;;;;;;4887774;29;20052;-75
2022/12/12 10:48:10;;;;;;;25.00;9.93;;;4.80;92.10;;;;;;4886551;29;20037;-75
2022/12/12 10:50:55;;;;;;;21.27;8.57;;;6.90;75.40;;;;;;4879875;29;20029;-74
2022/12/12 10:53:22;;;;;;;22.98;8.43;;;8.00;68.60;;;;;;4887807;29;20057;-75
2022/12/12 10:56:07;;;;;;;20.25;8.82;;;7.70;70.30;;;;;;4887439;29;20044;-76
2022/12/12 10:58:41;;;;;;;23.17;8.73;;;7.20;65.60;;;;;;4884282;29;20051;-75
2022/12/12 11:01:34;;;;;;;30.63;9.55;;;6.90;74.00;;;;;;4884684;29;20053;-73
2022/12/12 11:04:01;;;;;;;19.73;8.45;;;;;;;;;;4886105;29;20033;-74
2022/12/12 11:06:42;;;;;;;27.15;11.32;;;7.20;83.60;;;;;;4891267;29;20040;-74
2022/12/12 11:09:25;;;;;;;19.38;8.50;;;7.40;66.00;;;;;;4917090;29;20489;-73
2022/12/12 11:12:02;;;;;;;17.83;7.30;;;7.50;70.50;;;;;;4927130;29;20032;-74
2022/12/12 11:14:47;;;;;;;24.42;8.70;;;7.70;65.70;;;;;;4928023;29;20031;-73
2022/12/12 11:17:24;;;;;;;18.50;7.70;;;8.30;65.30;;;;;;4928405;29;20131;-74
2022/12/12 11:19:52;;;;;;;23.63;7.93;;;7.80;79.10;;;;;;4919187;29;20051;-74
2022/12/12 11:22:18;;;;;;;18.02;7.20;;;7.70;64.00;;;;;;4928064;29;20409;-74
2022/12/12 11:24:46;;;;;;;21.95;7.55;;;7.90;62.00;;;;;;4927469;28;20031;-73
2022/12/12 11:27:24;;;;;;;16.52;7.00;;;7.80;63.20;;;;;;4928718;29;20225;-74
2022/12/12 11:29:53;;;;;;;;;;;7.90;62.00;;;;;;4919277;29;20641;-73
2022/12/12 11:32:27;;;;;;;18.80;6.55;;;6.70;64.10;;;;;;4927700;29;19911;-74
2022/12/12 11:35:01;;;;;;;18.30;7.72;;;6.50;74.30;;;;;;4925469;29;20090;-74
2022/12/12 11:37:36;;;;;;;22.45;8.02;;;6.60;77.50;;;;;;4925267;29;20442;-74
2022/12/12 11:40:02;;;;;;;20.88;7.65;;;;;;;;;;4918233;29;20592;-74
2022/12/12 11:42:30;;;;;;;18.23;7.88;;;6.70;65.30;;;;;;4927500;29;20120;-74
2022/12/12 11:45:16;;;;;;;24.02;8.82;;;6.60;64.00;;;;;;4927282;29;20027;-73
2022/12/12 11:47:44;;;;;;;15.35;7.25;;;6.20;66.50;;;;;;4927403;29;20047;-74
2022/12/12 11:50:28;;;;;;;18.65;7.18;;;5.90;65.30;;;;;;4918800;29;20062;-71
2022/12/12 11:52:57;;;;;;;28.25;8.05;;;5.50;67.90;;;;;;4927955;29;20074;-71
2022/12/12 11:55:38;;;;;;;22.38;7.25;;;5.00;67.60;;;;;;4926699;29;20048;-71
2022/12/12 11:58:25;;;;;;;23.35;8.13;;;4.90;67.90;;;;;;4926472;29;20028;-72
2022/12/12 12:01:18;;;;;;;23.33;6.85;;;4.90;82.70;;;;;;4928332;29;20028;-72
2022/12/12 12:03:43;;;;;;;22.08;6.95;;;;;;;;;;4929578;29;20059;-73
2022/12/12 12:06:28;;;;;;;25.33;7.60;;;4.60;84.20;;;;;;4931337;29;20058;-72
2022/12/12 12:09:06;;;;;;;22.13;7.85;;;4.40;70.60;;;;;;4924230;29;20039;-73
2022/12/12 12:11:37;;;;;;;;;;;5.90;72.00;;;;;;4930562;29;20487;-74
2022/12/12 12:14:03;;;;;;;23.80;7.25;;;;;;;;;;4930542;29;19919;-74
2022/12/12 12:16:47;;;;;;;21.20;6.93;;;4.20;76.30;;;;;;4931327;29;20579;-74
2022/12/12 12:19:19;;;;;;;16.42;6.57;;;;;;;;;;4922001;29;20048;-74
2022/12/12 12:21:57;;;;;;;23.88;7.38;;;3.50;73.80;;;;;;4930154;29;20027;-72
2022/12/12 12:24:51;;;;;;;18.00;6.25;;;3.30;74.40;;;;;;4926152;29;20040;-75
2022/12/12 12:27:39;;;;;;;21.50;7.90;;;3.30;75.70;;;;;;4930871;29;20020;-73
2022/12/12 12:30:05;;;;;;;28.48;8.73;;;;;;;;;;4922364;29;20032;-72
2022/12/12 12:32:46;;;;;;;27.75;8.07;;;2.50;80.70;;;;;;4931481;29;20091;-76
2022/12/12 12:35:41;;;;;;;18.30;8.70;;;2.60;77.50;;;;;;4931029;29;20034;-75
2022/12/12 12:38:24;;;;;;;25.52;8.75;;;2.50;79.10;;;;;;4929642;29;20078;-76
2022/12/12 12:40:50;;;;;;;26.95;8.88;;;;;;;;;;4954981;28;20031;-75
2022/12/12 12:43:44;;;;;;;23.23;7.15;;;2.10;80.70;;;;;;4931427;29;20032;-75
2022/12/12 12:47:05;;;;;;;21.70;8.73;;;2.00;82.10;;;;;;4926276;29;20505;-76
2022/12/12 12:49:40;;;;;;;27.13;7.25;;;1.80;83.20;;;;;;4878717;29;20059;-75
2022/12/12 12:52:15;;;;;;;24.23;7.55;;;2.40;84.80;;;;;;4890375;29;20043;-75
2022/12/12 12:54:46;;;;;;;14.43;6.13;;;1.90;88.30;;;;;;4889197;29;20127;-74
2022/12/12 12:57:26;;;;;;;30.77;7.10;;;1.50;85.50;;;;;;4890227;29;20044;-73
2022/12/12 12:59:58;;;;;;;18.13;5.90;;;1.10;86.30;;;;;;4880501;29;20052;-74
2022/12/12 13:02:45;;;;;;;18.92;7.38;;;1.00;90.40;;;;;;4889713;29;20558;-73
2022/12/12 13:05:33;;;;;;;19.70;6.93;;;1.60;94.20;;;;;;4889753;29;20036;-74
2022/12/12 13:08:11;;;;;;;22.63;7.18;;;1.00;89.50;;;;;;4889331;29;20040;-73
2022/12/12 13:10:43;;;;;;;18.50;6.15;;;1.00;89.80;;;;;;4879584;29;20028;-73
2022/12/12 13:13:22;;;;;;;16.30;6.53;;;0.80;90.50;;;;;;4890139;29;20211;-74
2022/12/12 13:16:08;;;;;;;29.17;10.30;;;0.70;91.30;;;;;;4888300;29;20041;-75
2022/12/12 13:18:34;;;;;;;19.90;7.95;;;;;;;;;;4884668;29;20045;-74
2022/12/12 13:21:00;;;;;;;17.52;6.97;;;;;;;;;;4883735;29;20168;-72
2022/12/12 13:23:26;;;;;;;30.13;11.15;;;;;;;;;;4889567;29;20036;-72
2022/12/12 13:25:52;;;;;;;22.17;8.18;;;;;;;;;;4894327;29;20044;-73
2022/12/12 13:28:22;;;;;;;23.30;7.40;;;0.30;93.60;;;;;;4927900;29;20028;-72
2022/12/12 13:31:32;;;;;;;19.05;9.32;;;0.40;98.70;;;;;;4925107;29;20028;-71
2022/12/12 13:34:09;;;;;;;22.90;9.98;;;0.20;99.90;;;;;;4929641;29;20032;-73
2022/12/12 13:36:38;;;;;;;27.63;10.07;;;0.30;93.90;;;;;;4929591;29;20119;-72
2022/12/12 13:39:06;;;;;;;19.45;8.45;;;0.20;94.00;;;;;;4923227;29;20090;-72
2022/12/12 13:42:00;;;;;;;17.35;7.53;;;0.00;94.30;;;;;;4926615;29;20102;-71
2022/12/12 13:44:43;;;;;;;42.72;11.32;;;0.30;99.90;;;;;;4927808;29;20031;-71
2022/12/12 13:47:30;;;;;;;24.92;9.45;;;0.10;96.00;;;;;;4929677;29;20405;-71
2022/12/12 13:50:08;;;;;;;29.73;10.63;;;0.10;95.00;;;;;;4920624;28;20024;-72
2022/12/12 13:52:40;;;;;;;18.70;8.73;;;0.00;95.70;;;;;;4929402;29;20039;-71
2022/12/12 13:55:12;;;;;;;43.78;11.55;;;-0.50;97.90;;;;;;4928318;29;20055;-71
2022/12/12 14:00:37;;;;;;;21.80;10.20;;;-0.10;96.10;;;;;;4917347;28;20031;-71